Time;durP1;ratioP1;P1;durP2;ratioP2;P2;SDS_P1;SDS_P2;PMS_P1;PMS_P2;Temp;Humidity;BMP_temperature;BMP_pressure;BME280_temperature;BME280_humidity;BME280_pressure;Samples;Min_cycle;Max_cycle;Signal;HPM_P1;HPM_P2
2021/09/14 00:01:02;;;;;;;15.07;12.02;;;18.20;92.60;;;;;;4940079;29;20097;-88
2021/09/14 00:03:28;;;;;;;13.40;11.90;;;18.20;92.70;;;;;;4939874;29;20031;-88
2021/09/14 00:05:53;;;;;;;16.48;12.65;;;18.20;93.00;;;;;;4939747;29;20031;-88
2021/09/14 00:08:19;;;;;;;15.70;12.60;;;18.20;93.10;;;;;;4956888;29;20027;-89
2021/09/14 00:10:45;;;;;;;14.75;11.07;;;18.20;93.10;;;;;;4939437;29;20463;-88
2021/09/14 00:13:11;;;;;;;13.48;11.18;;;18.20;93.10;;;;;;4939818;29;20027;-89
2021/09/14 00:15:37;;;;;;;14.95;11.02;;;18.20;93.50;;;;;;4956888;28;20031;-89
2021/09/14 00:18:03;;;;;;;18.35;12.30;;;18.20;93.20;;;;;;4956254;29;20039;-88
2021/09/14 00:20:29;;;;;;;15.05;12.48;;;18.10;93.40;;;;;;4956565;29;20082;-88
2021/09/14 00:22:54;;;;;;;15.85;12.55;;;18.20;93.60;;;;;;4939556;29;20138;-89
2021/09/14 00:25:20;;;;;;;14.45;11.73;;;18.20;93.70;;;;;;4939462;29;20027;-88
2021/09/14 00:27:46;;;;;;;12.55;9.95;;;18.20;93.60;;;;;;4939603;29;20038;-88
2021/09/14 00:30:12;;;;;;;12.65;11.32;;;18.10;93.50;;;;;;4956682;29;20031;-88
2021/09/14 00:32:38;;;;;;;14.80;11.75;;;18.20;93.70;;;;;;4939486;29;20467;-89
2021/09/14 00:35:04;;;;;;;18.98;14.68;;;18.10;93.90;;;;;;4939165;29;20074;-88
2021/09/14 00:37:30;;;;;;;16.90;14.43;;;18.10;94.30;;;;;;4939121;29;20122;-89
2021/09/14 00:39:56;;;;;;;17.45;13.20;;;18.10;94.30;;;;;;4938934;29;20061;-89
2021/09/14 00:42:21;;;;;;;19.73;13.10;;;18.10;94.40;;;;;;4939323;29;20034;-88
2021/09/14 00:44:48;;;;;;;15.35;12.60;;;18.10;94.50;;;;;;4938968;29;20028;-88
2021/09/14 00:47:14;;;;;;;14.80;12.50;;;18.10;94.50;;;;;;4939075;29;20031;-88
2021/09/14 00:49:40;;;;;;;19.55;13.90;;;18.10;94.50;;;;;;4956484;29;20114;-88
2021/09/14 00:52:07;;;;;;;15.70;12.32;;;18.00;94.90;;;;;;4960632;29;20054;-90
2021/09/14 00:54:36;;;;;;;19.73;11.73;;;18.00;94.80;;;;;;4966203;29;20024;-89
2021/09/14 00:57:03;;;;;;;15.38;12.15;;;17.90;94.80;;;;;;4947862;29;20027;-89
2021/09/14 00:59:29;;;;;;;14.68;11.02;;;17.90;95.20;;;;;;4959985;29;20467;-88
2021/09/14 01:01:55;;;;;;;13.60;10.68;;;17.90;95.20;;;;;;4939016;29;20114;-88
2021/09/14 01:04:20;;;;;;;15.00;12.02;;;17.90;95.20;;;;;;4938950;29;20031;-88
2021/09/14 01:06:46;;;;;;;16.70;12.02;;;17.90;95.50;;;;;;4938922;29;20058;-89
2021/09/14 01:09:13;;;;;;;13.77;10.48;;;17.80;95.90;;;;;;4938943;29;20031;-89
2021/09/14 01:11:40;;;;;;;16.35;11.60;;;17.80;95.70;;;;;;4955709;29;20027;-89
2021/09/14 01:14:08;;;;;;;13.07;11.45;;;17.80;95.90;;;;;;4939010;29;20031;-88
2021/09/14 01:16:35;;;;;;;15.65;11.48;;;17.80;95.90;;;;;;4938826;29;20024;-88
2021/09/14 01:19:06;;;;;;;15.35;10.52;;;17.80;96.10;;;;;;4938451;29;20055;-88
2021/09/14 01:21:33;;;;;;;14.52;12.30;;;17.80;96.10;;;;;;4956175;29;20459;-89
2021/09/14 01:24:00;;;;;;;13.60;11.43;;;17.70;96.40;;;;;;4938656;29;20027;-88
2021/09/14 01:26:26;;;;;;;19.58;10.48;;;17.80;96.50;;;;;;4955651;29;20450;-89
2021/09/14 01:28:52;;;;;;;15.15;10.50;;;17.70;96.60;;;;;;4937682;29;20031;-89
2021/09/14 01:31:19;;;;;;;13.00;11.27;;;17.80;96.60;;;;;;4955822;29;20039;-89
2021/09/14 01:33:51;;;;;;;15.63;12.07;;;17.70;96.70;;;;;;4955307;29;20450;-90
2021/09/14 01:36:18;;;;;;;14.50;10.98;;;17.70;96.90;;;;;;4938803;29;20027;-88
2021/09/14 01:38:44;;;;;;;12.23;9.82;;;17.60;96.80;;;;;;4955670;29;20035;-89
2021/09/14 01:41:10;;;;;;;11.73;10.15;;;17.70;96.80;;;;;;4955536;29;20028;-89
2021/09/14 01:43:36;;;;;;;12.18;9.98;;;17.70;96.80;;;;;;4955451;29;20028;-89
2021/09/14 01:46:04;;;;;;;15.77;10.25;;;17.60;96.70;;;;;;4938181;29;20386;-89
2021/09/14 01:48:30;;;;;;;14.82;10.88;;;17.60;97.00;;;;;;4938163;29;20395;-89
2021/09/14 01:50:56;;;;;;;12.60;10.52;;;17.60;97.10;;;;;;4938349;29;20030;-89
2021/09/14 01:53:26;;;;;;;13.75;10.52;;;17.60;97.10;;;;;;4955556;29;20030;-88
2021/09/14 01:55:54;;;;;;;14.27;11.18;;;17.60;97.50;;;;;;4938598;29;20054;-89
2021/09/14 01:58:20;;;;;;;12.93;10.55;;;17.60;97.50;;;;;;4938026;29;20047;-88
2021/09/14 02:01:01;;;;;;;13.27;10.43;;;17.70;97.50;;;;;;4938344;29;20023;-88
2021/09/14 02:04:13;;;;;;;12.98;10.35;;;17.70;97.80;;;;;;4938721;29;20434;-89
2021/09/14 03:00:13;;;;;;;10.65;8.38;;;17.70;99.20;;;;;;4958939;29;19914;-87
2021/09/14 03:02:39;;;;;;;13.73;10.75;;;17.70;98.10;;;;;;4941085;29;20387;-88
2021/09/14 03:05:05;;;;;;;13.65;11.30;;;17.70;98.40;;;;;;4940952;29;20393;-88
2021/09/14 03:07:31;;;;;;;16.63;12.68;;;17.70;98.40;;;;;;4940945;29;20042;-89
2021/09/14 03:09:56;;;;;;;16.17;12.55;;;17.60;98.70;;;;;;4941374;29;20027;-88
2021/09/14 03:12:22;;;;;;;20.35;13.85;;;17.60;98.80;;;;;;4941225;29;20120;-88
2021/09/14 03:14:49;;;;;;;15.85;12.15;;;17.60;99.10;;;;;;4940960;29;20030;-87
2021/09/14 03:17:15;;;;;;;12.90;10.57;;;17.60;98.90;;;;;;4940517;29;20498;-88
2021/09/14 03:19:41;;;;;;;15.48;12.60;;;17.60;98.90;;;;;;4940642;29;20031;-88
2021/09/14 03:22:06;;;;;;;18.17;14.23;;;17.60;99.00;;;;;;4940835;29;20082;-88
2021/09/14 03:24:32;;;;;;;15.02;12.77;;;17.60;99.20;;;;;;4940636;29;20067;-88
2021/09/14 03:26:58;;;;;;;14.38;12.18;;;17.60;99.20;;;;;;4940797;29;20114;-88
2021/09/14 03:29:24;;;;;;;14.43;11.27;;;17.60;99.20;;;;;;4957867;29;20039;-87
2021/09/14 03:31:50;;;;;;;15.07;13.15;;;17.60;99.10;;;;;;4940541;29;20441;-88
2021/09/14 03:34:16;;;;;;;12.95;10.43;;;17.50;99.20;;;;;;4940222;29;20090;-88
2021/09/14 03:36:43;;;;;;;16.13;13.20;;;17.50;99.30;;;;;;4957344;29;20391;-88
2021/09/14 03:39:09;;;;;;;16.13;11.55;;;17.60;99.60;;;;;;4940238;29;20126;-88
2021/09/14 03:41:35;;;;;;;15.20;12.80;;;17.60;99.50;;;;;;4940176;29;20502;-88
2021/09/14 03:44:01;;;;;;;15.73;12.85;;;17.50;99.50;;;;;;4957847;29;20031;-88
2021/09/14 03:46:27;;;;;;;16.17;12.57;;;17.50;99.40;;;;;;4940430;29;20386;-88
2021/09/14 03:48:52;;;;;;;15.85;11.65;;;17.50;99.50;;;;;;4957550;29;20039;-88
2021/09/14 03:51:18;;;;;;;14.90;12.02;;;17.50;99.40;;;;;;4956176;28;20023;-88
2021/09/14 03:53:44;;;;;;;13.18;10.23;;;17.50;99.50;;;;;;4940161;29;20034;-88
2021/09/14 03:56:09;;;;;;;12.57;10.23;;;17.50;99.40;;;;;;4957019;29;20028;-88
2021/09/14 03:58:35;;;;;;;13.57;11.45;;;17.50;99.40;;;;;;4939757;29;20127;-89
2021/09/14 04:01:01;;;;;;;17.35;12.15;;;17.50;99.40;;;;;;4957315;29;20062;-88
2021/09/14 04:03:40;;;;;;;14.30;10.20;;;17.50;99.40;;;;;;4939841;29;20497;-88
2021/09/14 04:08:52;;;;;;;14.88;12.10;;;17.60;99.60;;;;;;4957133;29;20028;-88
2021/09/14 04:11:21;;;;;;;15.93;13.25;;;17.60;99.70;;;;;;4957148;29;20024;-89
2021/09/14 04:13:48;;;;;;;20.33;15.38;;;17.60;99.70;;;;;;4956964;29;20110;-88
2021/09/14 04:16:13;;;;;;;20.35;15.20;;;17.60;99.90;;;;;;4939681;29;20036;-89
2021/09/14 04:18:39;;;;;;;18.23;14.35;;;17.60;99.90;;;;;;4956831;29;20475;-89
2021/09/14 04:21:05;;;;;;;18.25;14.20;;;17.60;99.90;;;;;;4957050;29;20094;-88
2021/09/14 04:23:31;;;;;;;15.48;13.18;;;17.60;99.90;;;;;;4939634;29;20074;-88
2021/09/14 04:25:56;;;;;;;17.27;13.60;;;17.60;99.90;;;;;;4939441;29;20027;-88
2021/09/14 04:28:22;;;;;;;17.42;13.65;;;17.60;99.90;;;;;;4939180;29;20062;-88
2021/09/14 04:30:48;;;;;;;16.63;14.88;;;17.60;99.90;;;;;;4939408;29;20073;-87
2021/09/14 04:33:13;;;;;;;16.58;13.50;;;17.50;99.90;;;;;;4939353;29;20031;-88
2021/09/14 04:35:39;;;;;;;17.52;13.95;;;17.50;99.90;;;;;;4956330;28;20083;-88
2021/09/14 04:38:05;;;;;;;17.88;14.48;;;17.50;99.90;;;;;;4956126;29;20047;-88
2021/09/14 04:40:31;;;;;;;15.98;13.57;;;17.60;99.90;;;;;;4939113;29;20042;-88
2021/09/14 04:42:57;;;;;;;14.65;12.45;;;17.50;99.90;;;;;;4956328;29;20034;-88
2021/09/14 04:45:23;;;;;;;22.00;16.13;;;17.50;99.90;;;;;;4955900;28;20019;-90
2021/09/14 04:47:49;;;;;;;16.13;13.38;;;17.60;99.90;;;;;;4956637;29;20110;-88
2021/09/14 04:50:14;;;;;;;15.38;13.75;;;17.60;99.90;;;;;;4939058;29;20501;-88
2021/09/14 04:52:40;;;;;;;17.38;14.30;;;17.60;99.90;;;;;;4939449;29;20034;-88
2021/09/14 04:55:07;;;;;;;16.60;13.38;;;17.60;99.90;;;;;;4939355;29;20060;-87
2021/09/14 04:57:32;;;;;;;15.80;13.43;;;17.70;99.90;;;;;;4938936;29;20131;-88
2021/09/14 04:59:58;;;;;;;14.55;12.02;;;17.70;99.90;;;;;;4938661;29;20442;-89
2021/09/14 05:02:24;;;;;;;14.57;12.15;;;17.80;99.90;;;;;;4956403;28;20120;-88
2021/09/14 05:04:49;;;;;;;14.55;11.73;;;17.80;99.90;;;;;;4955989;29;20111;-89
2021/09/14 05:07:15;;;;;;;11.90;10.70;;;17.90;99.90;;;;;;4938934;29;20023;-89
2021/09/14 05:09:41;;;;;;;13.40;11.13;;;17.90;99.90;;;;;;4938642;29;20441;-89
2021/09/14 05:12:07;;;;;;;13.32;10.90;;;18.00;99.90;;;;;;4939210;29;20023;-89
2021/09/14 05:14:32;;;;;;;12.23;10.95;;;18.10;99.90;;;;;;4955570;29;20058;-89
2021/09/14 05:17:00;;;;;;;17.50;14.13;;;18.10;99.90;;;;;;4939567;29;20066;-89
2021/09/14 05:19:33;;;;;;;14.32;11.95;;;18.20;99.90;;;;;;4939294;29;20043;-89
2021/09/14 05:22:00;;;;;;;14.63;10.48;;;18.30;99.80;;;;;;4938661;29;20035;-88
2021/09/14 05:24:30;;;;;;;13.40;11.45;;;18.40;99.60;;;;;;4955615;29;20471;-88
2021/09/14 05:26:56;;;;;;;12.98;11.63;;;18.50;99.40;;;;;;4938505;29;20475;-89
2021/09/14 05:29:22;;;;;;;14.68;12.40;;;18.60;99.10;;;;;;4955764;29;20058;-88
2021/09/14 05:31:49;;;;;;;16.70;13.65;;;18.70;98.80;;;;;;4955060;29;20431;-90
2021/09/14 05:34:15;;;;;;;14.30;11.93;;;18.80;98.70;;;;;;4955362;28;20051;-88
2021/09/14 05:36:41;;;;;;;14.13;12.68;;;18.80;98.50;;;;;;4938289;29;20038;-88
2021/09/14 05:39:07;;;;;;;12.20;10.90;;;18.80;98.20;;;;;;4955482;29;20162;-88
2021/09/14 05:41:33;;;;;;;16.17;12.52;;;18.80;98.00;;;;;;4938023;29;20110;-89
2021/09/14 05:43:59;;;;;;;14.38;12.88;;;18.80;98.00;;;;;;4954917;29;20463;-89
2021/09/14 05:46:25;;;;;;;13.82;12.00;;;18.70;97.90;;;;;;4938273;29;20542;-89
2021/09/14 05:48:51;;;;;;;13.00;11.27;;;18.70;97.80;;;;;;4937910;29;20541;-88
2021/09/14 05:51:18;;;;;;;14.43;12.82;;;18.70;97.90;;;;;;4937990;29;20055;-88
2021/09/14 05:53:44;;;;;;;13.45;11.73;;;18.70;97.70;;;;;;4937941;29;20082;-88
2021/09/14 05:56:09;;;;;;;11.18;9.70;;;18.70;97.60;;;;;;4937837;29;20027;-89
2021/09/14 05:58:35;;;;;;;11.55;10.35;;;18.60;97.60;;;;;;4937706;29;20139;-89
2021/09/14 06:01:01;;;;;;;11.68;10.48;;;18.70;97.60;;;;;;4955294;29;20063;-88
2021/09/14 06:03:28;;;;;;;11.32;10.20;;;18.70;97.50;;;;;;4955198;29;20027;-89
2021/09/14 06:05:54;;;;;;;10.45;9.45;;;18.80;97.40;;;;;;4938294;29;20028;-88
2021/09/14 06:08:20;;;;;;;11.15;10.05;;;19.00;97.30;;;;;;4938281;29;20042;-89
2021/09/14 06:10:45;;;;;;;10.93;9.82;;;19.20;96.90;;;;;;4937857;29;20027;-89
2021/09/14 06:13:11;;;;;;;12.25;8.55;;;19.40;96.40;;;;;;4937871;29;20039;-89
2021/09/14 06:15:37;;;;;;;11.48;8.90;;;19.60;95.80;;;;;;4940738;29;20066;-89
2021/09/14 06:18:02;;;;;;;12.00;9.60;;;19.70;95.30;;;;;;4941962;29;20395;-89
2021/09/14 06:20:28;;;;;;;10.50;9.15;;;19.90;94.40;;;;;;4941422;29;20042;-89
2021/09/14 06:22:54;;;;;;;9.38;8.35;;;19.90;93.80;;;;;;4942167;29;20034;-88
2021/09/14 06:25:20;;;;;;;9.43;7.68;;;20.00;93.70;;;;;;4959477;29;20063;-89
2021/09/14 06:27:45;;;;;;;9.88;8.88;;;20.10;93.70;;;;;;4941661;29;20034;-89
2021/09/14 06:30:11;;;;;;;10.38;8.93;;;20.20;93.00;;;;;;4959049;29;20028;-88
2021/09/14 06:32:37;;;;;;;10.15;8.05;;;20.30;92.70;;;;;;4947332;29;20034;-89
2021/09/14 06:35:03;;;;;;;8.98;7.82;;;20.50;92.70;;;;;;4967790;29;20051;-89
2021/09/14 06:37:29;;;;;;;9.18;7.85;;;20.70;92.30;;;;;;4967814;29;20066;-89
2021/09/14 06:39:55;;;;;;;10.45;7.97;;;20.90;92.10;;;;;;4943420;29;20092;-89
2021/09/14 06:42:20;;;;;;;8.48;7.57;;;21.00;91.40;;;;;;4940677;29;20023;-89
2021/09/14 06:44:46;;;;;;;10.50;8.55;;;21.00;90.90;;;;;;4941809;29;20046;-89
2021/09/14 06:47:12;;;;;;;9.00;8.10;;;21.10;90.40;;;;;;4941265;29;20374;-89
2021/09/14 06:49:37;;;;;;;8.77;7.30;;;21.10;90.20;;;;;;4958188;29;20031;-89
2021/09/14 06:52:03;;;;;;;10.55;7.32;;;21.10;90.30;;;;;;4958072;29;20031;-87
2021/09/14 06:54:29;;;;;;;8.02;6.72;;;21.20;90.30;;;;;;4957741;29;20074;-87
2021/09/14 06:56:55;;;;;;;8.23;7.43;;;21.20;90.40;;;;;;4958053;29;20035;-87
2021/09/14 06:59:21;;;;;;;8.38;7.45;;;21.40;90.00;;;;;;4940681;29;20178;-87
2021/09/14 07:01:46;;;;;;;6.20;5.60;;;21.50;89.70;;;;;;4958299;29;20093;-89
2021/09/14 07:04:14;;;;;;;7.50;5.80;;;21.80;89.90;;;;;;4958564;29;20493;-90
2021/09/14 07:06:40;;;;;;;5.82;5.32;;;22.00;88.40;;;;;;4941087;29;20027;-90
2021/09/14 07:09:07;;;;;;;7.65;6.57;;;22.30;86.50;;;;;;4957755;29;20034;-89
2021/09/14 07:11:33;;;;;;;5.78;5.18;;;22.40;84.90;;;;;;4940199;29;20027;-88
2021/09/14 07:13:58;;;;;;;5.45;4.63;;;22.40;83.50;;;;;;4940707;29;20070;-89
2021/09/14 07:16:25;;;;;;;5.70;5.10;;;22.40;82.50;;;;;;4957976;29;20462;-89
2021/09/14 07:18:51;;;;;;;5.13;4.63;;;22.60;81.70;;;;;;4940417;29;20043;-87
2021/09/14 07:21:17;;;;;;;5.38;4.57;;;22.70;80.40;;;;;;4940394;29;20388;-87
2021/09/14 07:23:44;;;;;;;5.93;4.22;;;22.80;78.70;;;;;;4940047;29;20082;-86
2021/09/14 07:26:10;;;;;;;4.13;3.40;;;22.70;77.70;;;;;;4956952;28;20031;-87
2021/09/14 07:28:36;;;;;;;5.50;4.25;;;22.70;75.60;;;;;;4940233;29;20471;-87
2021/09/14 07:31:02;;;;;;;4.95;4.07;;;22.60;75.20;;;;;;4939934;29;20028;-89
2021/09/14 07:33:28;;;;;;;4.43;3.60;;;22.60;75.20;;;;;;4939983;29;20027;-90
2021/09/14 07:35:53;;;;;;;4.68;4.22;;;22.60;75.50;;;;;;4957385;29;20055;-89
2021/09/14 07:38:19;;;;;;;5.55;4.07;;;22.50;75.90;;;;;;4939654;29;20051;-90
2021/09/14 07:40:45;;;;;;;5.25;4.45;;;22.60;76.20;;;;;;4939702;29;20042;-87
2021/09/14 07:43:12;;;;;;;7.28;4.90;;;22.50;73.90;;;;;;4957598;29;20085;-88
2021/09/14 07:45:37;;;;;;;4.25;3.85;;;22.50;74.00;;;;;;4939884;28;20037;-87
2021/09/14 07:48:03;;;;;;;4.50;3.92;;;22.50;72.90;;;;;;4939982;29;20398;-87
2021/09/14 07:50:29;;;;;;;4.45;4.05;;;22.50;73.60;;;;;;4957173;29;20027;-89
2021/09/14 07:52:55;;;;;;;4.57;3.47;;;22.60;72.20;;;;;;4956908;29;20054;-89
2021/09/14 07:55:20;;;;;;;4.55;4.13;;;22.70;72.20;;;;;;4958098;29;20034;-90
2021/09/14 07:57:46;;;;;;;4.95;3.92;;;22.80;70.70;;;;;;4941038;29;20063;-89
2021/09/14 08:00:13;;;;;;;3.65;3.28;;;22.80;70.90;;;;;;4941588;29;20027;-86
2021/09/14 08:02:39;;;;;;;3.83;3.13;;;23.00;70.20;;;;;;4957397;29;20440;-88
2021/09/14 08:05:05;;;;;;;5.97;4.57;;;23.00;69.20;;;;;;4940857;29;20126;-90
2021/09/14 08:07:31;;;;;;;5.05;4.00;;;23.10;69.20;;;;;;4958174;29;20058;-90
2021/09/14 08:09:57;;;;;;;4.82;3.72;;;23.00;69.20;;;;;;4941957;29;20058;-88
2021/09/14 08:12:23;;;;;;;4.20;3.80;;;23.00;68.20;;;;;;4941347;29;20059;-90
2021/09/14 08:14:48;;;;;;;4.50;3.92;;;22.90;68.30;;;;;;4957721;29;20030;-91
2021/09/14 08:17:16;;;;;;;4.80;3.70;;;22.90;68.30;;;;;;4940282;29;20039;-90
2021/09/14 08:19:45;;;;;;;4.72;4.10;;;22.80;68.60;;;;;;4940705;29;20073;-90
2021/09/14 08:22:11;;;;;;;4.57;4.18;;;22.80;68.50;;;;;;4940257;29;20023;-90
2021/09/14 08:24:38;;;;;;;5.85;3.88;;;22.70;68.50;;;;;;4941297;29;20034;-89
2021/09/14 08:27:05;;;;;;;5.50;4.35;;;22.70;68.90;;;;;;4940207;29;20471;-88
2021/09/14 08:29:31;;;;;;;7.03;4.10;;;22.70;69.50;;;;;;4939663;29;20051;-89
2021/09/14 08:31:57;;;;;;;4.20;3.75;;;22.70;69.80;;;;;;4956829;29;20367;-89
2021/09/14 08:34:23;;;;;;;5.22;4.38;;;22.70;70.40;;;;;;4939346;29;20058;-89
2021/09/14 08:36:49;;;;;;;6.20;5.60;;;22.60;70.90;;;;;;4939347;28;20027;-89
2021/09/14 08:39:14;;;;;;;6.28;4.95;;;22.70;71.50;;;;;;4938488;29;20032;-89
2021/09/14 08:41:42;;;;;;;6.20;5.60;;;22.70;72.20;;;;;;4939249;29;20118;-88
2021/09/14 08:44:08;;;;;;;5.85;5.22;;;22.70;72.30;;;;;;4939022;29;20090;-89
2021/09/14 08:46:35;;;;;;;7.20;5.55;;;22.80;71.80;;;;;;4939247;29;20031;-89
2021/09/14 08:49:01;;;;;;;5.68;4.97;;;22.80;71.60;;;;;;4938515;29;20031;-88
2021/09/14 08:51:27;;;;;;;4.93;4.43;;;22.90;71.00;;;;;;4939012;29;20031;-89
2021/09/14 08:53:53;;;;;;;4.20;3.80;;;23.00;70.80;;;;;;4939750;29;20043;-88
2021/09/14 08:56:18;;;;;;;4.22;3.75;;;23.00;71.00;;;;;;4938549;29;20027;-89
2021/09/14 08:58:58;;;;;;;8.30;5.53;;;23.20;71.30;;;;;;4955496;29;20047;-88
2021/09/14 09:01:24;;;;;;;6.18;5.57;;;23.40;69.60;;;;;;4955853;29;20028;-88
2021/09/14 09:04:00;;;;;;;6.55;5.57;;;23.50;70.50;;;;;;4938505;29;20058;-88
2021/09/14 09:06:44;;;;;;;5.25;4.75;;;23.60;70.00;;;;;;4938155;29;20023;-89
2021/09/14 09:09:18;;;;;;;5.38;4.80;;;23.60;70.20;;;;;;4956515;29;20106;-89
2021/09/14 09:27:02;;;;;;;5.20;4.53;;;23.30;69.10;;;;;;5157823;23;20063;-93
2021/09/14 09:52:12;;;;;;;;;;;;;;;;;;;;;
2021/09/14 09:58:49;;;;;;;4.47;4.07;;;22.70;69.30;;;;;;4839370;29;20126;-94
2021/09/14 10:02:08;;;;;;;5.28;4.75;;;22.80;68.60;;;;;;4783784;29;20173;-94
2021/09/14 10:05:14;;;;;;;5.72;5.10;;;22.80;69.00;;;;;;4793935;29;20678;-95
2021/09/14 10:08:26;;;;;;;6.60;5.00;;;22.80;69.60;;;;;;4806083;29;20031;-95
2021/09/14 10:10:56;;;;;;;5.00;4.50;;;22.90;69.50;;;;;;4864141;29;20378;-92
2021/09/14 10:13:40;;;;;;;5.00;4.38;;;22.90;68.40;;;;;;4898148;29;20124;-96
2021/09/14 10:16:46;;;;;;;4.40;4.00;;;23.00;66.80;;;;;;4890525;29;20117;-95
2021/09/14 10:23:40;;;;;;;4.53;3.47;;;23.10;65.00;;;;;;4894517;29;20097;-96
2021/09/14 10:26:51;;;;;;;4.03;3.63;;;23.20;65.40;;;;;;4836858;29;20102;-95
2021/09/14 10:37:39;;;;;;;5.47;3.53;;;23.40;63.30;;;;;;4999056;23;20987;-93
2021/09/14 11:18:20;;;;;;;3.90;3.03;;;23.70;57.60;;;;;;4944510;29;20506;-94
2021/09/14 11:20:47;;;;;;;3.33;2.92;;;23.70;57.40;;;;;;4961817;28;20035;-90
2021/09/14 11:23:36;;;;;;;4.15;2.97;;;23.70;58.60;;;;;;4957137;29;20078;-91
2021/09/14 11:26:18;;;;;;;4.15;3.05;;;23.70;57.10;;;;;;4921709;29;20035;-90
2021/09/14 11:28:55;;;;;;;4.00;2.92;;;23.80;57.70;;;;;;4941913;29;20047;-89
2021/09/14 11:31:28;;;;;;;3.92;3.30;;;23.80;57.10;;;;;;4952793;28;20023;-91
2021/09/14 11:33:57;;;;;;;4.18;3.38;;;23.80;56.60;;;;;;4962511;28;20026;-90
2021/09/14 11:36:26;;;;;;;3.92;3.53;;;23.70;56.70;;;;;;4952250;29;20063;-90
2021/09/14 11:39:11;;;;;;;4.00;3.60;;;23.70;56.60;;;;;;4940491;29;20097;-90
2021/09/14 11:41:39;;;;;;;3.72;3.17;;;23.70;56.90;;;;;;4959272;28;20034;-90
2021/09/14 11:44:10;;;;;;;4.53;3.17;;;23.80;57.00;;;;;;4959219;28;20031;-90
2021/09/14 11:46:47;;;;;;;3.80;2.88;;;23.80;56.40;;;;;;4940064;29;20113;-89
2021/09/14 11:49:13;;;;;;;3.80;2.70;;;23.90;55.80;;;;;;4906073;29;20042;-89
2021/09/14 11:51:41;;;;;;;3.35;3.05;;;23.90;56.50;;;;;;4939690;29;20023;-89
2021/09/14 11:54:15;;;;;;;3.20;2.80;;;23.90;55.80;;;;;;4924259;29;20057;-89
2021/09/14 11:56:42;;;;;;;3.83;3.00;;;24.00;55.80;;;;;;4940815;29;20075;-88
2021/09/14 11:59:20;;;;;;;5.45;3.28;;;24.10;55.90;;;;;;4939643;29;20051;-89
2021/09/14 12:01:46;;;;;;;4.40;3.58;;;24.20;55.50;;;;;;4957211;29;20035;-88
2021/09/14 12:04:16;;;;;;;3.45;3.10;;;24.20;55.00;;;;;;4938965;29;20730;-89
2021/09/14 12:06:50;;;;;;;3.83;3.15;;;24.30;55.10;;;;;;4956401;29;20102;-90
2021/09/14 12:09:20;;;;;;;3.95;2.85;;;24.30;54.60;;;;;;4920559;29;20027;-89
2021/09/14 12:11:57;;;;;;;3.83;3.13;;;24.20;54.70;;;;;;4919688;29;20453;-90
2021/09/14 12:14:27;;;;;;;3.17;2.50;;;24.20;54.90;;;;;;4937855;29;20112;-91
2021/09/14 12:17:03;;;;;;;3.22;2.92;;;24.20;55.30;;;;;;4923454;29;20027;-89
2021/09/14 12:19:29;;;;;;;3.17;2.88;;;24.20;55.20;;;;;;4943135;28;20070;-89
2021/09/14 12:21:57;;;;;;;4.00;3.60;;;24.30;55.70;;;;;;4957921;28;20177;-88
2021/09/14 12:24:23;;;;;;;5.22;3.20;;;24.30;55.30;;;;;;4943258;29;20121;-89
2021/09/14 12:26:55;;;;;;;4.53;3.42;;;24.30;55.20;;;;;;4939484;29;20028;-90
2021/09/14 12:29:22;;;;;;;6.45;3.35;;;24.30;55.20;;;;;;4957161;29;20031;-90
2021/09/14 12:31:48;;;;;;;4.07;3.47;;;24.30;54.40;;;;;;4939382;29;20035;-92
2021/09/14 12:34:19;;;;;;;3.50;2.88;;;24.20;54.20;;;;;;4938728;29;20035;-91
2021/09/14 12:36:45;;;;;;;3.92;3.63;;;24.20;54.50;;;;;;4956700;29;20031;-90
2021/09/14 12:39:12;;;;;;;3.83;3.10;;;24.30;54.70;;;;;;4958086;29;20043;-89
2021/09/14 12:41:39;;;;;;;6.00;3.67;;;24.30;54.60;;;;;;4963235;29;20490;-90
2021/09/14 12:44:08;;;;;;;3.72;3.17;;;24.40;54.40;;;;;;4950414;29;20036;-89
2021/09/14 12:46:34;;;;;;;3.65;3.17;;;24.50;54.10;;;;;;4947724;29;20455;-90
2021/09/14 12:48:59;;;;;;;3.83;3.42;;;24.50;53.80;;;;;;4946699;28;20039;-90
2021/09/14 12:51:30;;;;;;;4.95;3.90;;;24.40;53.30;;;;;;4957618;29;20027;-90
2021/09/14 12:53:56;;;;;;;5.22;3.20;;;24.30;52.80;;;;;;4942134;29;20123;-89
2021/09/14 12:56:22;;;;;;;2.97;2.63;;;24.20;53.30;;;;;;4952857;29;20077;-90
2021/09/14 12:58:48;;;;;;;3.92;3.00;;;24.20;53.10;;;;;;4938584;29;20074;-89
2021/09/14 13:01:13;;;;;;;4.30;2.88;;;24.10;51.70;;;;;;4966254;28;20107;-89
2021/09/14 13:03:41;;;;;;;3.83;2.50;;;24.00;51.60;;;;;;4957858;28;20046;-90
2021/09/14 13:06:07;;;;;;;4.43;3.05;;;23.90;52.00;;;;;;4931567;29;20111;-89
2021/09/14 13:08:34;;;;;;;4.70;2.88;;;23.80;52.30;;;;;;4944918;29;20039;-88
2021/09/14 13:10:59;;;;;;;4.32;2.97;;;23.80;52.70;;;;;;4940080;29;20055;-90
2021/09/14 13:16:57;;;;;;;3.92;3.17;;;23.80;53.00;;;;;;4922631;29;20103;-94
2021/09/14 13:19:23;;;;;;;6.70;3.13;;;24.10;52.30;;;;;;4901135;29;20479;-91
2021/09/14 13:22:03;;;;;;;3.10;2.70;;;24.40;52.60;;;;;;4916474;29;20028;-93
2021/09/14 13:24:41;;;;;;;7.20;3.13;;;24.90;51.90;;;;;;4920070;29;20047;-91
2021/09/14 13:27:30;;;;;;;5.30;3.58;;;25.40;49.80;;;;;;4924587;29;20439;-91
2021/09/14 13:30:08;;;;;;;3.10;2.80;;;25.60;48.40;;;;;;4902020;29;20043;-91
2021/09/14 13:32:40;;;;;;;3.50;3.20;;;25.90;48.00;;;;;;4920265;29;20032;-90
2021/09/14 13:35:29;;;;;;;4.35;2.97;;;26.20;47.60;;;;;;4923113;29;20028;-92
2021/09/14 13:38:10;;;;;;;2.88;2.67;;;26.50;47.60;;;;;;4928037;29;20039;-91
2021/09/14 13:40:41;;;;;;;4.10;3.05;;;27.00;47.00;;;;;;4916119;29;20032;-91
2021/09/14 13:43:59;;;;;;;3.28;2.95;;;27.40;46.90;;;;;;4902739;29;20062;-91
2021/09/14 13:46:29;;;;;;;4.03;3.10;;;27.60;45.50;;;;;;4902880;29;20040;-91
2021/09/14 13:48:56;;;;;;;4.68;3.15;;;27.30;45.60;;;;;;4924265;29;20091;-90
2021/09/14 13:51:45;;;;;;;4.07;3.40;;;27.20;45.60;;;;;;4914310;29;20409;-91
2021/09/14 13:54:17;;;;;;;3.30;2.92;;;27.10;44.40;;;;;;4909203;29;20096;-91
2021/09/14 13:56:44;;;;;;;3.90;3.47;;;27.10;45.60;;;;;;4899775;29;20579;-90
2021/09/14 13:59:13;;;;;;;4.47;3.38;;;27.10;45.30;;;;;;4899289;29;20100;-90
2021/09/14 14:01:43;;;;;;;3.58;3.28;;;27.30;45.30;;;;;;4915959;29;20051;-92
2021/09/14 14:04:10;;;;;;;3.70;3.33;;;27.50;44.90;;;;;;4914179;29;20514;-90
2021/09/14 14:06:37;;;;;;;3.80;3.20;;;27.50;45.20;;;;;;4915370;29;20036;-90
2021/09/14 14:09:04;;;;;;;3.75;3.38;;;27.80;44.90;;;;;;4908769;29;20035;-91
2021/09/14 14:11:32;;;;;;;4.30;3.67;;;28.00;44.80;;;;;;4908852;29;20044;-91
2021/09/14 14:14:01;;;;;;;3.38;3.08;;;28.10;44.30;;;;;;4918219;29;20379;-91
2021/09/14 14:16:36;;;;;;;4.35;3.70;;;28.20;44.30;;;;;;4936420;29;20027;-90
2021/09/14 14:19:05;;;;;;;4.25;3.55;;;28.10;43.60;;;;;;4934444;29;20114;-90
2021/09/14 14:21:35;;;;;;;4.40;3.63;;;27.70;43.80;;;;;;4917908;29;20036;-90
2021/09/14 14:24:02;;;;;;;3.85;3.10;;;27.40;44.50;;;;;;4932501;29;20043;-90
2021/09/14 14:26:30;;;;;;;3.72;3.30;;;27.10;44.90;;;;;;4927353;29;20032;-90
2021/09/14 14:29:02;;;;;;;3.40;3.10;;;26.80;45.40;;;;;;4931466;29;20059;-90
2021/09/14 14:31:33;;;;;;;4.90;3.78;;;26.80;46.10;;;;;;4934934;29;20040;-90
2021/09/14 14:34:13;;;;;;;4.03;3.67;;;26.80;45.60;;;;;;4928818;29;20115;-90
2021/09/14 14:36:43;;;;;;;4.68;3.10;;;26.80;45.60;;;;;;4919072;29;20035;-89
2021/09/14 14:39:18;;;;;;;4.13;3.42;;;26.70;46.00;;;;;;4950411;29;20456;-93
2021/09/14 14:42:35;;;;;;;;;;;;;;;;;;;;;
2021/09/14 14:45:01;;;;;;;5.60;3.50;;;26.90;46.80;;;;;;4933687;29;20030;-90
2021/09/14 14:47:31;;;;;;;3.42;3.03;;;27.20;46.80;;;;;;4938421;29;20032;-91
2021/09/14 14:50:01;;;;;;;3.20;2.90;;;27.50;46.80;;;;;;4939345;29;20044;-91
2021/09/14 14:52:27;;;;;;;4.10;3.45;;;27.80;46.40;;;;;;4936080;29;20032;-91
2021/09/14 14:54:52;;;;;;;3.83;3.33;;;28.10;46.10;;;;;;4934579;29;20581;-91
2021/09/14 14:57:39;;;;;;;3.70;3.25;;;28.20;45.90;;;;;;4936432;29;20036;-91
2021/09/14 15:00:43;;;;;;;4.00;3.55;;;28.40;45.10;;;;;;4935111;29;20055;-91
2021/09/14 15:03:22;;;;;;;3.78;3.45;;;28.60;44.90;;;;;;4937109;29;20475;-90
2021/09/14 15:06:03;;;;;;;4.03;3.63;;;28.50;44.70;;;;;;4936302;29;20122;-91
2021/09/14 15:08:29;;;;;;;4.03;3.50;;;28.40;45.10;;;;;;4931442;29;20040;-90
2021/09/14 15:10:57;;;;;;;4.05;3.50;;;28.30;45.20;;;;;;4938402;29;20373;-90
2021/09/14 15:13:25;;;;;;;3.63;3.13;;;28.10;45.20;;;;;;4937331;29;20123;-91
2021/09/14 15:15:54;;;;;;;3.53;3.20;;;28.10;45.60;;;;;;4934848;29;20511;-92
2021/09/14 15:18:21;;;;;;;4.18;3.03;;;28.10;45.60;;;;;;4935847;29;20032;-91
2021/09/14 15:21:00;;;;;;;3.70;3.20;;;28.00;45.70;;;;;;4938032;29;20159;-91
2021/09/14 15:23:52;;;;;;;3.42;3.13;;;27.80;45.90;;;;;;4937890;29;20396;-89